createdAt,value
2023-06-19T00:02:25.508Z,4.70
2023-06-19T00:05:17.600Z,4.57
2023-06-19T00:08:10.471Z,4.55
2023-06-19T00:11:02.500Z,4.60
2023-06-19T00:13:47.396Z,5.05
2023-06-19T00:16:39.613Z,4.18
2023-06-19T00:19:24.616Z,5.00
2023-06-19T00:22:16.479Z,4.60
2023-06-19T00:25:01.637Z,4.72
2023-06-19T00:27:54.498Z,4.55
2023-06-19T00:30:39.332Z,4.45
2023-06-19T00:33:30.481Z,4.70
2023-06-19T00:36:17.193Z,4.47
2023-06-19T00:39:08.494Z,4.40
2023-06-19T00:41:53.949Z,4.38
2023-06-19T00:44:46.524Z,4.63
2023-06-19T00:47:31.500Z,4.80
2023-06-19T00:50:22.773Z,4.38
2023-06-19T00:53:09.440Z,4.40
2023-06-19T00:56:03.509Z,4.40
2023-06-19T00:58:48.526Z,4.50
2023-06-19T01:01:40.540Z,4.87
2023-06-19T01:04:31.781Z,4.47
2023-06-19T01:07:26.499Z,4.40
2023-06-19T01:10:15.964Z,4.40
2023-06-19T01:13:14.520Z,4.60
2023-06-19T01:16:00.812Z,4.50
2023-06-19T01:18:53.521Z,4.40
2023-06-19T01:21:38.644Z,5.07
2023-06-19T01:24:30.569Z,4.70
2023-06-19T01:27:15.382Z,4.63
2023-06-19T01:30:08.540Z,4.50
2023-06-19T01:33:11.619Z,4.22
2023-06-19T01:35:58.628Z,4.47
2023-06-19T01:38:52.518Z,4.25
2023-06-19T01:41:39.304Z,4.72
2023-06-19T01:44:31.554Z,4.60
2023-06-19T01:47:20.774Z,4.20
2023-06-19T01:50:13.566Z,4.53
2023-06-19T01:52:58.661Z,4.80
2023-06-19T01:55:50.542Z,4.93
2023-06-19T01:58:35.724Z,4.53
2023-06-19T02:01:27.523Z,4.80
2023-06-19T02:04:18.564Z,5.18
2023-06-19T02:07:17.544Z,4.72
2023-06-19T02:10:09.567Z,4.88
2023-06-19T02:13:01.535Z,4.93
2023-06-19T02:15:46.452Z,4.80
2023-06-19T02:18:38.529Z,4.80
2023-06-19T02:21:30.543Z,5.00
2023-06-19T02:24:21.576Z,4.80
2023-06-19T02:27:13.541Z,4.40
2023-06-19T02:30:04.531Z,4.05
2023-06-19T02:32:49.424Z,4.82
2023-06-19T02:35:41.552Z,5.00
2023-06-19T02:38:33.530Z,4.80
2023-06-19T02:41:19.473Z,4.47
2023-06-19T02:44:11.539Z,4.70
2023-06-19T02:47:02.558Z,4.95
2023-06-19T02:49:47.742Z,4.97
2023-06-19T02:52:39.595Z,4.90
2023-06-19T02:55:24.586Z,4.93
2023-06-19T02:58:15.533Z,4.90
2023-06-19T03:01:01.122Z,4.80
2023-06-19T03:03:53.565Z,5.28
2023-06-19T03:06:40.836Z,4.88
2023-06-19T03:09:32.558Z,4.80
2023-06-19T03:12:17.568Z,5.22
2023-06-19T03:15:09.569Z,5.30
2023-06-19T03:17:54.772Z,4.60
2023-06-19T03:20:46.571Z,4.30
2023-06-19T03:23:31.641Z,4.27
2023-06-19T03:26:22.608Z,4.60
2023-06-19T03:29:07.453Z,4.28
2023-06-19T03:31:58.594Z,4.18
2023-06-19T03:34:43.313Z,3.80
2023-06-19T03:37:34.584Z,3.60
2023-06-19T03:40:19.757Z,3.92
2023-06-19T03:43:11.573Z,4.00
2023-06-19T03:45:56.391Z,3.83
2023-06-19T03:48:48.580Z,3.65
2023-06-19T03:51:33.820Z,3.50
2023-06-19T03:54:25.576Z,3.45
2023-06-19T03:57:10.301Z,3.88
2023-06-19T04:00:01.600Z,3.80
2023-06-19T04:02:49.109Z,3.90
2023-06-19T04:05:49.597Z,3.57
2023-06-19T04:08:34.557Z,3.38
2023-06-19T04:11:26.590Z,3.40
2023-06-19T04:14:11.479Z,3.53
2023-06-19T04:17:02.593Z,3.80
2023-06-19T04:19:47.298Z,3.50
2023-06-19T04:22:38.564Z,3.38
2023-06-19T04:25:23.543Z,3.80
2023-06-19T04:28:14.583Z,3.38
2023-06-19T04:31:02.580Z,3.15
2023-06-19T04:33:54.574Z,3.30
2023-06-19T04:36:39.579Z,3.15
2023-06-19T04:39:31.588Z,3.08
2023-06-19T04:42:21.589Z,3.58
2023-06-19T04:45:14.591Z,3.35
2023-06-19T04:48:03.963Z,3.80
2023-06-19T04:50:55.589Z,3.40
2023-06-19T04:53:40.604Z,3.60
2023-06-19T04:56:31.614Z,3.00
2023-06-19T04:59:25.608Z,3.60
2023-06-19T05:02:11.486Z,3.77
2023-06-19T05:05:09.600Z,3.13
2023-06-19T05:08:01.685Z,3.53
2023-06-19T05:10:53.606Z,3.17
2023-06-19T05:13:38.790Z,3.33
2023-06-19T05:16:33.056Z,3.30
2023-06-19T05:19:19.995Z,3.70
2023-06-19T05:22:11.625Z,3.20
2023-06-19T05:25:03.612Z,3.42
2023-06-19T05:27:48.391Z,3.50
2023-06-19T05:30:39.631Z,3.40
2023-06-19T05:33:24.635Z,3.53
2023-06-19T05:36:16.635Z,3.38
2023-06-19T05:39:01.716Z,3.50
2023-06-19T05:41:53.635Z,3.45
2023-06-19T05:44:38.572Z,3.20
2023-06-19T05:47:32.682Z,3.50
2023-06-19T05:50:17.877Z,3.08
2023-06-19T05:53:09.624Z,2.70
2023-06-19T05:56:00.647Z,2.65
2023-06-19T05:58:51.613Z,2.63
2023-06-19T06:01:43.658Z,2.83
2023-06-19T06:04:41.652Z,2.45
2023-06-19T06:07:36.312Z,2.15
2023-06-19T06:10:29.633Z,2.20
2023-06-19T06:13:14.680Z,2.50
2023-06-19T06:16:06.633Z,2.20
2023-06-19T06:18:51.447Z,2.40
2023-06-19T06:21:42.648Z,2.30
2023-06-19T06:24:28.349Z,2.28
2023-06-19T06:27:20.646Z,2.27
2023-06-19T06:30:06.715Z,2.20
2023-06-19T06:32:58.667Z,2.47
2023-06-19T06:35:43.381Z,2.60
2023-06-19T06:38:34.644Z,2.55
2023-06-19T06:41:19.712Z,2.60
2023-06-19T06:44:12.625Z,2.30
2023-06-19T06:46:57.644Z,2.30
2023-06-19T06:49:48.686Z,2.60
2023-06-19T06:52:40.640Z,2.70
2023-06-19T06:55:31.654Z,2.50
2023-06-19T06:58:18.300Z,2.58
2023-06-19T07:01:09.822Z,2.80
2023-06-19T07:04:14.679Z,2.30
2023-06-19T07:07:06.666Z,2.50
2023-06-19T07:09:51.541Z,2.33
2023-06-19T07:12:43.674Z,2.25
2023-06-19T07:15:28.879Z,2.40
2023-06-19T07:18:20.670Z,1.67
2023-06-19T07:21:18.665Z,1.52
2023-06-19T07:24:10.675Z,1.07
2023-06-19T07:27:03.680Z,0.93
2023-06-19T07:29:49.011Z,1.08
2023-06-19T07:32:40.712Z,1.10
2023-06-19T07:35:25.786Z,1.02
2023-06-19T07:38:16.654Z,1.00
2023-06-19T07:41:01.840Z,1.00
2023-06-19T07:43:53.661Z,1.25
2023-06-19T07:46:44.670Z,1.05
2023-06-19T07:49:29.705Z,1.00
2023-06-19T07:52:21.670Z,1.40
2023-06-19T07:55:13.664Z,1.00
2023-06-19T07:58:05.660Z,0.77
2023-06-19T08:00:50.785Z,1.00
2023-06-19T08:03:42.735Z,1.20
2023-06-19T08:06:33.926Z,1.42
2023-06-19T08:09:25.660Z,1.33
2023-06-19T08:12:10.643Z,1.45
2023-06-19T08:15:01.673Z,1.10
2023-06-19T08:17:47.009Z,1.23
2023-06-19T08:20:38.728Z,1.50
2023-06-19T08:23:23.543Z,1.30
2023-06-19T08:26:15.684Z,1.40
2023-06-19T08:29:00.536Z,1.52
2023-06-19T08:31:51.708Z,1.38
2023-06-19T08:34:37.609Z,1.30
2023-06-19T08:37:28.728Z,1.20
2023-06-19T08:40:13.573Z,1.37
2023-06-19T08:43:05.681Z,1.33
2023-06-19T08:46:11.888Z,1.35
2023-06-19T08:48:57.146Z,1.38
2023-06-19T08:51:48.743Z,1.27
2023-06-19T08:54:39.699Z,1.30
2023-06-19T08:57:34.941Z,1.30
2023-06-19T09:00:34.715Z,1.55
2023-06-19T09:03:29.853Z,1.80
2023-06-19T09:06:24.808Z,1.50
2023-06-19T09:09:20.750Z,1.80
2023-06-19T09:12:14.705Z,1.80
2023-06-19T09:14:59.511Z,1.90
2023-06-19T09:17:51.760Z,2.00
2023-06-19T09:20:45.113Z,2.00
2023-06-19T09:23:36.721Z,2.10
2023-06-19T09:26:21.750Z,2.10
2023-06-19T09:29:26.726Z,2.40
2023-06-19T09:32:25.787Z,2.00
2023-06-19T09:35:17.740Z,2.10
2023-06-19T09:38:03.197Z,2.20
2023-06-19T09:40:55.708Z,2.13
2023-06-19T09:43:45.017Z,2.23
2023-06-19T09:46:40.768Z,2.10
2023-06-19T09:49:39.726Z,2.50
2023-06-19T09:52:25.320Z,2.42
2023-06-19T09:55:20.761Z,2.50
2023-06-19T09:58:06.778Z,2.60
2023-06-19T10:00:58.724Z,2.80
2023-06-19T10:03:44.260Z,2.43
2023-06-19T10:06:56.728Z,2.20
2023-06-19T10:09:41.985Z,2.72
2023-06-19T10:12:47.755Z,2.47
2023-06-19T10:15:32.707Z,2.65
2023-06-19T10:18:25.766Z,2.30
2023-06-19T10:21:17.919Z,2.97
2023-06-19T10:24:09.787Z,3.22
2023-06-19T10:27:03.065Z,2.90
2023-06-19T10:30:10.142Z,2.80
2023-06-19T10:33:10.742Z,2.67
2023-06-19T10:35:56.180Z,2.87
2023-06-19T10:38:47.762Z,2.70
2023-06-19T10:41:39.779Z,2.75
2023-06-19T10:44:26.431Z,3.10
2023-06-19T10:47:17.757Z,2.92
2023-06-19T10:50:11.885Z,3.30
2023-06-19T10:52:56.964Z,2.80
2023-06-19T10:55:48.757Z,3.47
2023-06-19T10:58:33.723Z,4.25
2023-06-19T11:01:25.787Z,3.28
2023-06-19T11:04:18.832Z,2.92
2023-06-19T11:07:16.788Z,3.22
2023-06-19T11:10:10.788Z,2.90
2023-06-19T11:12:58.253Z,2.83
2023-06-19T11:15:49.816Z,3.30
2023-06-19T11:18:34.885Z,3.10
2023-06-19T11:21:26.774Z,2.80
2023-06-19T11:24:20.862Z,2.58
2023-06-19T11:27:06.392Z,3.00
2023-06-19T11:30:02.794Z,2.73
2023-06-19T11:32:49.287Z,2.88
2023-06-19T11:35:43.792Z,2.90
2023-06-19T11:38:28.859Z,3.05
2023-06-19T11:41:19.790Z,2.92
2023-06-19T11:44:06.814Z,2.70
2023-06-19T11:46:57.795Z,3.37
2023-06-19T11:49:43.135Z,2.80
2023-06-19T11:52:34.798Z,3.35
2023-06-19T11:55:20.008Z,2.75
2023-06-19T11:58:11.785Z,2.90
2023-06-19T12:01:03.821Z,2.80
2023-06-19T12:03:48.785Z,3.03
2023-06-19T12:06:47.833Z,2.75
2023-06-19T12:09:35.700Z,2.75
2023-06-19T12:12:42.851Z,2.38
2023-06-19T12:15:37.541Z,2.50
2023-06-19T12:18:28.805Z,2.60
2023-06-19T12:21:29.162Z,3.03
2023-06-19T12:24:24.839Z,2.40
2023-06-19T12:27:10.235Z,2.20
2023-06-19T12:30:01.814Z,2.47
2023-06-19T12:32:50.653Z,2.70
2023-06-19T12:35:42.813Z,2.28
2023-06-19T12:38:27.874Z,2.42
2023-06-19T12:41:18.814Z,2.75
2023-06-19T12:44:04.225Z,2.65
2023-06-19T12:46:55.809Z,2.10
2023-06-19T12:49:47.807Z,2.10
2023-06-19T12:52:38.823Z,2.72
2023-06-19T12:55:29.820Z,2.30
2023-06-19T12:58:20.833Z,2.80
2023-06-19T13:01:06.515Z,2.30
2023-06-19T13:03:57.927Z,2.70
2023-06-19T13:06:49.844Z,2.90
2023-06-19T13:09:41.029Z,3.33
2023-06-19T13:12:32.858Z,3.50
2023-06-19T13:15:18.247Z,2.58
2023-06-19T13:18:09.862Z,2.47
2023-06-19T13:20:54.898Z,2.97
2023-06-19T13:23:45.864Z,2.90
2023-06-19T13:26:30.980Z,2.90
2023-06-19T13:29:22.848Z,2.65
2023-06-19T13:32:08.177Z,2.97
2023-06-19T13:35:03.841Z,2.60
2023-06-19T13:37:48.885Z,2.17
2023-06-19T13:40:40.843Z,2.50
2023-06-19T13:43:25.817Z,2.30
2023-06-19T13:46:16.903Z,3.00
2023-06-19T13:49:07.816Z,2.20
2023-06-19T13:51:59.871Z,2.53
2023-06-19T13:54:44.626Z,2.20
2023-06-19T13:57:35.842Z,2.75
2023-06-19T14:00:27.848Z,2.70
2023-06-19T14:03:14.294Z,2.17
2023-06-19T14:06:05.844Z,2.00
2023-06-19T14:09:03.862Z,2.30
2023-06-19T14:11:49.100Z,2.30
2023-06-19T14:14:40.860Z,3.97
2023-06-19T14:17:25.834Z,2.85
2023-06-19T14:20:18.848Z,2.45
2023-06-19T14:23:03.736Z,2.40
2023-06-19T14:25:54.861Z,2.60
2023-06-19T14:28:40.289Z,2.20
2023-06-19T14:31:31.859Z,2.20
2023-06-19T14:34:16.754Z,2.65
2023-06-19T14:37:07.874Z,2.80
2023-06-19T14:39:52.783Z,3.00
2023-06-19T14:42:44.890Z,2.95
2023-06-19T14:45:29.801Z,3.22
2023-06-19T14:48:20.861Z,2.70
2023-06-19T14:51:11.894Z,2.72
2023-06-19T14:53:57.369Z,2.33
2023-06-19T14:56:48.880Z,2.40
2023-06-19T14:59:33.849Z,2.42
2023-06-19T15:02:24.915Z,2.20
2023-06-19T15:05:16.881Z,2.60
2023-06-19T15:08:10.252Z,2.70
2023-06-19T15:11:01.891Z,2.70
2023-06-19T15:13:53.877Z,2.70
2023-06-19T15:16:38.983Z,2.53
2023-06-19T15:19:31.868Z,2.30
2023-06-19T15:22:16.965Z,2.50
2023-06-19T15:25:07.887Z,2.40
2023-06-19T15:27:58.937Z,3.90
2023-06-19T15:30:43.807Z,2.20
2023-06-19T15:33:34.895Z,2.38
2023-06-19T15:36:25.903Z,3.60
2023-06-19T15:39:16.882Z,2.60
2023-06-19T15:42:01.731Z,2.30
2023-06-19T15:44:52.888Z,3.22
2023-06-19T15:47:45.063Z,3.05
2023-06-19T15:50:36.917Z,2.50
2023-06-19T15:53:21.785Z,2.70
2023-06-19T15:56:13.929Z,2.30
2023-06-19T15:58:58.754Z,2.28
2023-06-19T16:01:50.011Z,2.65
2023-06-19T16:04:35.139Z,3.35
2023-06-19T16:07:32.915Z,2.47
2023-06-19T16:10:18.378Z,2.53
2023-06-19T16:13:09.919Z,2.88
2023-06-19T16:15:54.859Z,2.70
2023-06-19T16:18:46.914Z,2.70
2023-06-19T16:21:32.214Z,2.70
2023-06-19T16:24:23.953Z,2.53
2023-06-19T16:27:09.318Z,2.35
2023-06-19T16:30:00.928Z,2.28
2023-06-19T16:32:45.903Z,2.55
2023-06-19T16:35:38.940Z,2.50
2023-06-19T16:38:24.062Z,2.27
2023-06-19T16:41:16.573Z,2.47
2023-06-19T16:44:08.932Z,2.70
2023-06-19T16:47:00.009Z,2.78
2023-06-19T16:49:51.956Z,2.47
2023-06-19T16:52:42.983Z,2.67
2023-06-19T16:55:27.903Z,2.80
2023-06-19T16:58:18.937Z,2.63
2023-06-19T17:01:04.076Z,2.90
2023-06-19T17:03:54.940Z,2.75
2023-06-19T17:06:52.968Z,2.73
2023-06-19T17:09:44.956Z,2.60
2023-06-19T17:12:35.988Z,2.35
2023-06-19T17:15:20.743Z,2.47
2023-06-19T17:18:14.028Z,2.83
2023-06-19T17:20:58.655Z,3.33
2023-06-19T17:23:49.946Z,4.27
2023-06-19T17:26:35.055Z,3.08
2023-06-19T17:29:25.945Z,2.70
2023-06-19T17:32:10.868Z,2.72
2023-06-19T17:35:01.933Z,2.65
2023-06-19T17:37:47.196Z,3.00
2023-06-19T17:40:38.963Z,3.28
2023-06-19T17:43:30.940Z,3.00
2023-06-19T17:46:15.824Z,3.00
2023-06-19T17:49:06.955Z,2.72
2023-06-19T17:51:57.964Z,2.60
2023-06-19T17:54:45.812Z,3.00
2023-06-19T17:57:36.971Z,2.95
2023-06-19T18:00:28.966Z,3.60
2023-06-19T18:03:13.802Z,3.22
2023-06-19T18:06:05.962Z,2.83
2023-06-19T18:08:57.004Z,3.03
2023-06-19T18:11:47.967Z,2.83
2023-06-19T18:14:39.959Z,3.00
2023-06-19T18:17:32.027Z,3.15
2023-06-19T18:20:24.212Z,3.00
2023-06-19T18:23:15.986Z,3.00
2023-06-19T18:26:01.266Z,3.00
2023-06-19T18:28:52.967Z,3.03
2023-06-19T18:31:44.983Z,2.78
2023-06-19T18:34:36.967Z,2.93
2023-06-19T18:37:21.816Z,4.03
2023-06-19T18:40:13.974Z,3.38
2023-06-19T18:43:05.992Z,2.88
2023-06-19T18:45:51.493Z,3.13
2023-06-19T18:48:42.956Z,2.75
2023-06-19T18:51:27.864Z,2.77
2023-06-19T18:54:18.990Z,2.55
2023-06-19T18:57:04.232Z,2.80
2023-06-19T18:59:55.985Z,2.90
2023-06-19T19:02:40.828Z,3.13
2023-06-19T19:05:32.995Z,3.33
2023-06-19T19:08:24.163Z,2.78
2023-06-19T19:11:15.988Z,2.78
2023-06-19T19:14:00.913Z,2.65
2023-06-19T19:16:52.036Z,2.90
2023-06-19T19:19:37.413Z,3.20
2023-06-19T19:22:29.008Z,2.30
2023-06-19T19:25:14.044Z,2.60
2023-06-19T19:28:05.981Z,2.85
2023-06-19T19:30:57.004Z,2.55
2023-06-19T19:33:42.434Z,2.43
2023-06-19T19:36:34.021Z,2.45
2023-06-19T19:39:18.832Z,2.90
2023-06-19T19:42:11.023Z,2.78
2023-06-19T19:44:55.974Z,2.90
2023-06-19T19:47:48.018Z,2.73
2023-06-19T19:50:34.012Z,2.83
2023-06-19T19:53:25.005Z,2.78
2023-06-19T19:56:17.026Z,2.78
2023-06-19T19:59:08.027Z,2.78
2023-06-19T20:02:00.148Z,2.53
2023-06-19T20:04:52.035Z,2.60
2023-06-19T20:07:50.023Z,3.03
2023-06-19T20:10:35.415Z,2.40
2023-06-19T20:13:27.005Z,2.90
2023-06-19T20:16:12.151Z,3.13
2023-06-19T20:19:04.017Z,2.92
2023-06-19T20:21:56.036Z,2.88
2023-06-19T20:24:41.128Z,2.90
2023-06-19T20:27:34.066Z,2.72
2023-06-19T20:30:18.804Z,3.07
2023-06-19T20:33:10.049Z,2.80
2023-06-19T20:35:55.152Z,3.13
2023-06-19T20:38:47.017Z,2.67
2023-06-19T20:41:39.023Z,2.80
2023-06-19T20:44:24.829Z,2.93
2023-06-19T20:47:16.098Z,2.97
2023-06-19T20:50:07.047Z,3.00
2023-06-19T20:52:58.059Z,2.85
2023-06-19T20:55:50.141Z,3.03
2023-06-19T20:58:42.032Z,5.17
2023-06-19T21:01:27.175Z,3.08
2023-06-19T21:04:19.031Z,3.60
2023-06-19T21:07:10.402Z,3.25
2023-06-19T21:10:02.048Z,3.53
2023-06-19T21:12:46.966Z,3.60
2023-06-19T21:15:38.035Z,3.95
2023-06-19T21:18:29.029Z,4.28
2023-06-19T21:21:14.278Z,3.60
2023-06-19T21:24:06.127Z,3.17
2023-06-19T21:26:51.326Z,3.50
2023-06-19T21:29:44.058Z,3.15
2023-06-19T21:32:29.286Z,3.30
2023-06-19T21:35:21.060Z,3.38
2023-06-19T21:38:06.147Z,3.42
2023-06-19T21:40:58.056Z,3.40
2023-06-19T21:43:43.012Z,3.47
2023-06-19T21:46:34.137Z,3.22
2023-06-19T21:49:19.135Z,3.45
2023-06-19T21:52:11.077Z,2.97
2023-06-19T21:54:56.119Z,2.67
2023-06-19T21:57:59.568Z,3.00
2023-06-19T22:00:45.136Z,3.20
2023-06-19T22:03:36.154Z,3.13
2023-06-19T22:06:28.148Z,3.15
2023-06-19T22:09:27.080Z,3.10
2023-06-19T22:12:12.091Z,2.90
2023-06-19T22:15:04.074Z,2.75
2023-06-19T22:17:49.307Z,2.95
2023-06-19T22:20:41.083Z,3.33
2023-06-19T22:23:34.084Z,2.90
2023-06-19T22:26:19.918Z,3.20
2023-06-19T22:29:14.107Z,2.90
2023-06-19T22:32:06.085Z,3.53
2023-06-19T22:34:58.088Z,2.95
2023-06-19T22:37:43.498Z,3.00
2023-06-19T22:40:35.076Z,3.30
2023-06-19T22:43:19.950Z,2.72
2023-06-19T22:46:11.145Z,3.05
2023-06-19T22:48:56.447Z,3.58
2023-06-19T22:51:48.089Z,3.20
2023-06-19T22:54:32.942Z,3.25
2023-06-19T22:57:24.094Z,3.40
2023-06-19T23:00:13.700Z,3.08
2023-06-19T23:03:12.182Z,3.40
2023-06-19T23:06:14.090Z,3.27
2023-06-19T23:09:05.083Z,3.40
2023-06-19T23:11:57.096Z,3.00
2023-06-19T23:14:41.868Z,3.13
2023-06-19T23:17:33.100Z,3.05
2023-06-19T23:20:18.458Z,3.37
2023-06-19T23:23:12.111Z,2.92
2023-06-19T23:26:08.098Z,3.22
2023-06-19T23:29:01.078Z,3.50
2023-06-19T23:31:52.106Z,3.47
2023-06-19T23:34:43.101Z,2.93
2023-06-19T23:37:28.064Z,3.30
2023-06-19T23:40:20.087Z,3.13
2023-06-19T23:43:11.125Z,3.00
2023-06-19T23:45:55.906Z,3.60
2023-06-19T23:48:48.123Z,2.87
2023-06-19T23:51:33.034Z,3.13
2023-06-19T23:54:24.099Z,2.75
2023-06-19T23:57:16.114Z,2.80
